Kam Paeng Phet, Thailand
Current Conditions -  °F | °C
As of 11:00 AM on Thursday 27 Nov 2014 (Local Time) from VTPP Reporting Station
Broken Clouds Broken Clouds  
Wind Chill: 90°   Ceiling: 30000
Heat Index: 96°   Visibility: 6mi
Dew Point: 72°   Wind: 0mph
Humidity: 55%   Direction: NA
Pressure: 29.88"   Gusts: NA
Location:  16.48°N, 99.53°E
Report Text: VTPP 270400Z 00000KT 9999 SCT023 BKN300 32/22 Q1012
Loading
Personal Weather Stations






























Interactive Weather Map New forecast layout! Learn more

10-Day Weather Forecast

Advertisements
Track Severe Weather on mobile